Time;durP1;ratioP1;P1;durP2;ratioP2;P2;SDS_P1;SDS_P2;PMS_P1;PMS_P2;Temp;Humidity;BMP_temperature;BMP_pressure;BME280_temperature;BME280_humidity;BME280_pressure;Samples;Min_cycle;Max_cycle;Signal;HPM_P1;HPM_P2
2023/08/02 00:01:10;;;;;;;4.10;2.50;;;;;;;14.29;100.00;99318.55;105451;1253;69161;-65
2023/08/02 00:03:37;;;;;;;6.80;2.80;;;;;;;14.26;100.00;99326.98;105494;1253;69222;-65
2023/08/02 00:06:04;;;;;;;4.50;2.90;;;;;;;14.23;100.00;99325.95;105463;1257;73543;-65
2023/08/02 00:08:32;;;;;;;5.50;3.10;;;;;;;14.21;100.00;99327.98;105458;1252;83069;-65
2023/08/02 00:10:59;;;;;;;7.40;3.20;;;;;;;14.20;100.00;99330.04;105449;1253;72615;-65
2023/08/02 00:13:26;;;;;;;5.80;3.10;;;;;;;14.18;100.00;99329.80;105473;1253;69153;-65
2023/08/02 00:15:53;;;;;;;5.30;2.90;;;;;;;14.19;100.00;99330.15;105453;1253;69169;-65
2023/08/02 00:18:20;;;;;;;5.00;3.00;;;;;;;14.18;100.00;99328.83;105491;1253;74778;-65
2023/08/02 00:20:50;;;;;;;5.90;3.60;;;;;;;14.16;100.00;99331.36;105473;1256;82137;-65
2023/08/02 00:23:17;;;;;;;6.10;3.00;;;;;;;14.16;100.00;99330.17;105498;1256;73523;-65
2023/08/02 00:25:44;;;;;;;6.80;3.30;;;;;;;14.11;100.00;99329.98;105495;1256;69294;-65
2023/08/02 00:28:11;;;;;;;6.10;3.30;;;;;;;14.09;100.00;99336.60;105448;1252;69090;-65
2023/08/02 00:30:44;;;;;;;5.00;3.00;;;;;;;14.09;100.00;99334.36;105473;1253;74628;-62
2023/08/02 00:33:12;;;;;;;7.80;3.20;;;;;;;14.06;100.00;99333.30;105556;1256;82648;-62
2023/08/02 00:35:43;;;;;;;5.40;2.90;;;;;;;14.04;100.00;99333.56;105569;1254;73676;-63
2023/08/02 00:38:11;;;;;;;6.90;2.80;;;;;;;14.05;100.00;99331.11;105500;1253;69183;-64
2023/08/02 00:40:38;;;;;;;5.70;2.90;;;;;;;14.04;100.00;99329.42;105602;1257;69181;-64
2023/08/02 00:43:06;;;;;;;4.70;2.80;;;;;;;14.03;100.00;99329.10;105375;1253;74915;-64
2023/08/02 00:45:33;;;;;;;4.00;2.50;;;;;;;14.02;100.00;99329.69;105605;1257;83236;-65
2023/08/02 00:48:00;;;;;;;4.90;2.70;;;;;;;14.01;100.00;99328.67;105563;1254;73603;-65
2023/08/02 00:50:29;;;;;;;5.50;3.00;;;;;;;14.04;100.00;99329.41;105283;1254;69140;-64
2023/08/02 00:52:56;;;;;;;6.30;3.20;;;;;;;14.05;100.00;99329.86;105394;1253;69190;-64
2023/08/02 00:55:23;;;;;;;3.90;2.90;;;;;;;14.02;100.00;99333.23;105348;1253;73832;-65
2023/08/02 00:57:50;;;;;;;4.60;3.10;;;;;;;13.98;100.00;99335.06;105218;1254;82666;-64
2023/08/02 01:00:18;;;;;;;3.60;2.70;;;;;;;13.96;100.00;99347.02;105445;1256;72605;-64
2023/08/02 01:02:45;;;;;;;5.20;3.30;;;;;;;13.91;100.00;99346.23;105437;1257;69197;-65
2023/08/02 01:05:12;;;;;;;4.20;2.70;;;;;;;13.90;100.00;99343.37;105434;1258;69174;-65
2023/08/02 01:07:47;;;;;;;4.70;3.00;;;;;;;13.85;100.00;99343.35;105536;1253;73681;-65
2023/08/02 01:10:24;;;;;;;4.90;2.80;;;;;;;13.78;100.00;99349.91;105514;1253;82205;-65
2023/08/02 01:12:54;;;;;;;7.40;2.80;;;;;;;13.74;100.00;99347.77;105301;1258;73685;-65
2023/08/02 01:15:21;;;;;;;;;;;;;;;13.72;100.00;99344.21;105515;1254;69139;-65
2023/08/02 01:17:50;;;;;;;5.50;2.80;;;;;;;13.69;100.00;99347.91;105513;1253;69121;-65
2023/08/02 01:20:17;;;;;;;4.40;3.00;;;;;;;13.66;100.00;99348.69;105364;1253;74812;-65
2023/08/02 01:22:45;;;;;;;5.60;2.60;;;;;;;13.63;100.00;99348.98;105449;1256;83233;-64
2023/08/02 01:25:12;;;;;;;6.30;2.80;;;;;;;13.60;100.00;99347.28;105443;1257;72680;-64
2023/08/02 01:27:44;;;;;;;6.30;2.70;;;;;;;13.56;100.00;99348.24;105333;1254;69174;-64
2023/08/02 01:30:14;;;;;;;5.70;2.50;;;;;;;13.53;100.00;99352.48;105244;1258;69838;-64
2023/08/02 01:32:42;;;;;;;5.90;2.80;;;;;;;13.53;100.00;99352.45;105497;1257;75511;-64
2023/08/02 01:35:10;;;;;;;7.20;3.00;;;;;;;13.52;100.00;99353.61;105480;1256;83123;-66
2023/08/02 01:37:36;;;;;;;5.50;3.20;;;;;;;13.52;100.00;99355.87;105558;1253;73876;-66
2023/08/02 01:40:04;;;;;;;3.00;2.40;;;;;;;13.50;100.00;99357.23;105249;1253;69150;-66
2023/08/02 01:42:31;;;;;;;4.10;2.50;;;;;;;13.50;100.00;99356.55;105306;1255;69177;-66
2023/08/02 01:44:58;;;;;;;6.10;3.00;;;;;;;13.49;100.00;99356.10;105506;1253;75324;-66
2023/08/02 01:47:25;;;;;;;5.60;2.90;;;;;;;13.46;100.00;99353.66;105240;1258;83328;-66
2023/08/02 01:49:52;;;;;;;7.30;2.80;;;;;;;13.45;100.00;99354.96;105388;1253;72654;-66
2023/08/02 01:52:19;;;;;;;5.80;2.80;;;;;;;13.43;100.00;99357.55;105435;1254;69065;-67
2023/08/02 01:54:48;;;;;;;4.60;2.80;;;;;;;13.43;100.00;99358.24;105515;1257;69122;-68
2023/08/02 01:57:14;;;;;;;4.50;2.50;;;;;;;13.42;100.00;99358.44;105485;1257;74822;-71
2023/08/02 01:59:42;;;;;;;7.00;2.70;;;;;;;13.43;100.00;99354.73;105247;1258;83413;-70
2023/08/02 02:02:08;;;;;;;4.40;2.60;;;;;;;13.43;100.00;99358.20;105214;1253;73668;-70
2023/08/02 02:04:36;;;;;;;4.00;2.80;;;;;;;13.44;100.00;99358.69;105365;1257;69195;-69
2023/08/02 02:07:03;;;;;;;3.80;3.00;;;;;;;13.45;100.00;99354.79;105492;1257;69193;-69
2023/08/02 02:09:30;;;;;;;5.30;2.90;;;;;;;13.47;100.00;99357.44;105559;1253;75214;-69
2023/08/02 02:11:57;;;;;;;5.60;2.80;;;;;;;13.47;100.00;99354.63;105447;1256;83507;-71
2023/08/02 02:14:25;;;;;;;5.20;3.20;;;;;;;13.47;100.00;99358.16;105490;1256;74428;-69
2023/08/02 02:16:52;;;;;;;6.00;2.60;;;;;;;13.48;100.00;99358.09;105433;1253;69038;-69
2023/08/02 02:19:19;;;;;;;5.90;3.20;;;;;;;13.48;100.00;99361.21;105450;1254;69258;-69
2023/08/02 02:21:47;;;;;;;3.40;2.70;;;;;;;13.48;100.00;99361.78;105427;1253;73627;-68
2023/08/02 02:24:14;;;;;;;3.60;2.50;;;;;;;13.48;100.00;99368.08;105469;1253;82382;-68
2023/08/02 02:26:41;;;;;;;5.40;2.70;;;;;;;13.47;100.00;99369.70;105439;1254;72685;-68
2023/08/02 02:29:08;;;;;;;4.10;2.40;;;;;;;13.47;100.00;99368.48;105475;1254;69118;-67
2023/08/02 02:31:35;;;;;;;5.20;2.90;;;;;;;13.47;100.00;99369.04;105196;1258;69136;-67
2023/08/02 02:34:02;;;;;;;4.90;2.40;;;;;;;13.45;100.00;99367.76;105479;1257;73851;-67
2023/08/02 02:36:29;;;;;;;5.50;2.30;;;;;;;13.45;100.00;99366.02;105431;1255;82313;-67
2023/08/02 02:38:56;;;;;;;5.30;2.70;;;;;;;13.44;100.00;99368.02;105495;1253;73860;-67
2023/08/02 02:41:24;;;;;;;8.30;3.10;;;;;;;13.45;100.00;99369.36;105487;1253;69065;-67
2023/08/02 02:43:52;;;;;;;7.40;2.40;;;;;;;13.45;100.00;99374.08;105544;1256;69203;-67
2023/08/02 02:46:19;;;;;;;3.80;2.40;;;;;;;13.46;100.00;99376.77;105532;1253;74898;-68
2023/08/02 02:48:45;;;;;;;3.60;2.50;;;;;;;13.48;100.00;99373.33;105459;1253;83569;-67
2023/08/02 02:51:12;;;;;;;5.80;3.10;;;;;;;13.52;100.00;99370.96;105441;1254;73937;-67
2023/08/02 02:53:39;;;;;;;4.30;3.00;;;;;;;13.56;100.00;99371.08;105513;1253;69078;-67
2023/08/02 02:56:06;;;;;;;3.40;2.20;;;;;;;13.58;100.00;99371.77;105202;1258;69157;-67
2023/08/02 02:58:33;;;;;;;4.30;2.40;;;;;;;13.63;100.00;99378.55;105559;1257;74805;-67
2023/08/02 03:01:00;;;;;;;3.60;2.60;;;;;;;13.66;100.00;99382.54;105444;1253;83615;-67
2023/08/02 03:03:27;;;;;;;3.10;2.50;;;;;;;13.69;100.00;99389.52;105484;1254;73867;-67
2023/08/02 03:05:54;;;;;;;6.10;2.30;;;;;;;13.72;100.00;99389.86;105567;1253;69120;-66
2023/08/02 03:08:21;;;;;;;6.20;2.90;;;;;;;13.76;100.00;99388.00;105452;1254;69164;-67
2023/08/02 03:10:48;;;;;;;11.40;3.10;;;;;;;13.79;100.00;99385.31;105467;1257;74751;-67
2023/08/02 03:13:15;;;;;;;5.10;2.20;;;;;;;13.83;100.00;99389.45;105471;1253;83036;-67
2023/08/02 03:15:42;;;;;;;2.80;2.30;;;;;;;13.87;100.00;99389.90;105468;1257;73302;-67
2023/08/02 03:18:09;;;;;;;4.70;2.30;;;;;;;13.91;100.00;99395.42;105541;1253;69184;-67
2023/08/02 03:20:39;;;;;;;3.40;2.00;;;;;;;13.96;100.00;99394.73;105468;1254;69173;-67
2023/08/02 03:23:07;;;;;;;3.30;2.20;;;;;;;14.01;100.00;99394.41;105475;1253;74967;-67
2023/08/02 03:25:35;;;;;;;4.80;2.00;;;;;;;14.06;100.00;99393.54;105557;1252;82245;-67
2023/08/02 03:28:02;;;;;;;5.40;2.30;;;;;;;14.10;100.00;99393.83;105498;1253;72661;-67
2023/08/02 03:30:29;;;;;;;2.40;2.10;;;;;;;14.14;100.00;99395.49;105544;1253;69189;-67
2023/08/02 03:32:56;;;;;;;5.70;2.30;;;;;;;14.18;100.00;99396.95;105587;1253;69183;-67
2023/08/02 03:35:23;;;;;;;3.50;2.40;;;;;;;14.21;100.00;99399.77;105483;1256;73729;-67
2023/08/02 03:37:50;;;;;;;5.40;2.20;;;;;;;14.22;100.00;99406.67;105581;1256;83316;-67
2023/08/02 03:40:17;;;;;;;3.90;2.30;;;;;;;14.23;100.00;99399.92;105436;1253;73717;-67
2023/08/02 03:42:44;;;;;;;3.70;2.30;;;;;;;14.23;100.00;99396.61;105485;1257;69173;-67
2023/08/02 03:45:11;;;;;;;4.00;2.10;;;;;;;14.23;100.00;99399.58;105463;1254;69093;-63
2023/08/02 03:47:37;;;;;;;4.30;2.60;;;;;;;14.23;100.00;99399.60;105469;1252;73408;-63
2023/08/02 03:50:05;;;;;;;3.50;2.40;;;;;;;14.23;100.00;99400.48;105440;1257;83352;-65
2023/08/02 03:52:32;;;;;;;4.90;2.40;;;;;;;14.23;100.00;99401.67;105871;1253;73714;-66
2023/08/02 03:54:59;;;;;;;5.20;2.70;;;;;;;14.24;100.00;99395.67;105570;1253;69076;-66
2023/08/02 03:57:26;;;;;;;6.60;2.80;;;;;;;14.24;100.00;99399.02;105531;1257;69092;-66
2023/08/02 03:59:53;;;;;;;6.40;3.00;;;;;;;14.24;100.00;99398.31;105694;1257;74964;-63
2023/08/02 04:02:20;;;;;;;6.90;2.90;;;;;;;14.22;100.00;99403.38;105715;1253;83504;-68
2023/08/02 04:04:47;;;;;;;4.90;2.70;;;;;;;14.20;100.00;99407.69;105544;1253;73132;-67
2023/08/02 04:07:14;;;;;;;4.40;2.70;;;;;;;14.17;100.00;99408.42;105507;1259;69077;-66
2023/08/02 04:09:41;;;;;;;4.20;2.80;;;;;;;14.14;100.00;99404.10;105628;1253;69198;-66
2023/08/02 04:12:08;;;;;;;4.00;2.80;;;;;;;14.11;100.00;99403.03;105562;1254;75059;-66
2023/08/02 04:14:35;;;;;;;4.40;2.70;;;;;;;14.09;100.00;99399.89;105644;1257;83479;-64
2023/08/02 04:17:02;;;;;;;6.30;2.70;;;;;;;14.07;100.00;99402.45;105446;1257;72654;-66
2023/08/02 04:19:29;;;;;;;6.00;2.70;;;;;;;14.03;100.00;99401.48;105455;1253;69169;-66
2023/08/02 04:21:56;;;;;;;6.30;2.80;;;;;;;13.97;100.00;99398.02;105417;1256;69123;-65
2023/08/02 04:24:23;;;;;;;12.00;2.90;;;;;;;13.93;100.00;99399.02;105433;1253;73881;-64
2023/08/02 04:26:50;;;;;;;3.60;2.60;;;;;;;13.89;100.00;99393.98;105397;1253;83567;-65
2023/08/02 04:29:17;;;;;;;6.60;3.00;;;;;;;13.86;100.00;99393.86;105412;1253;73843;-65
2023/08/02 04:31:44;;;;;;;5.60;3.30;;;;;;;13.84;100.00;99389.58;105471;1254;69165;-66
2023/08/02 04:34:11;;;;;;;7.20;3.00;;;;;;;13.82;100.00;99394.10;105498;1257;69249;-65
2023/08/02 04:36:38;;;;;;;4.50;2.70;;;;;;;13.80;100.00;99392.27;105440;1257;73778;-66
2023/08/02 04:39:06;;;;;;;3.50;2.70;;;;;;;13.81;100.00;99395.91;105485;1253;81482;-66
2023/08/02 04:41:34;;;;;;;4.00;2.70;;;;;;;13.84;100.00;99395.37;105471;1253;72649;-66
2023/08/02 04:44:01;;;;;;;5.90;2.70;;;;;;;13.90;100.00;99394.31;105483;1253;69205;-66
2023/08/02 04:46:28;;;;;;;5.60;2.90;;;;;;;13.96;100.00;99397.02;105459;1257;69229;-67
2023/08/02 04:48:56;;;;;;;6.70;2.70;;;;;;;14.04;100.00;99396.50;105514;1253;74665;-66
2023/08/02 04:51:23;;;;;;;3.30;2.90;;;;;;;14.14;100.00;99402.31;105521;1257;83208;-66
2023/08/02 04:53:49;;;;;;;5.10;3.10;;;;;;;14.25;100.00;99401.39;105550;1253;72621;-68
2023/08/02 04:56:17;;;;;;;3.90;2.40;;;;;;;14.38;100.00;99398.40;105433;1253;69191;-66
2023/08/02 04:58:44;;;;;;;5.40;2.50;;;;;;;14.51;100.00;99401.70;105529;1258;69118;-66
2023/08/02 05:01:11;;;;;;;7.80;2.70;;;;;;;14.64;100.00;99407.19;105469;1253;74935;-66
2023/08/02 05:03:38;;;;;;;5.80;2.50;;;;;;;14.75;100.00;99410.62;105460;1256;82539;-66
2023/08/02 05:06:05;;;;;;;5.50;2.30;;;;;;;14.84;100.00;99411.39;105407;1253;73058;-67
2023/08/02 05:08:35;;;;;;;3.40;2.40;;;;;;;14.94;100.00;99419.65;105473;1257;69015;-66
2023/08/02 05:11:06;;;;;;;4.80;2.50;;;;;;;15.02;100.00;99415.63;105567;1258;69120;-66
2023/08/02 05:13:33;;;;;;;6.10;2.60;;;;;;;15.07;100.00;99418.58;105487;1254;74816;-66
2023/08/02 05:16:01;;;;;;;4.90;2.30;;;;;;;15.12;100.00;99417.36;105509;1253;82794;-66
2023/08/02 05:18:28;;;;;;;4.50;2.20;;;;;;;15.13;100.00;99412.48;105443;1257;73595;-66
2023/08/02 05:20:54;;;;;;;4.90;2.30;;;;;;;15.16;100.00;99413.33;105473;1253;69184;-66
2023/08/02 05:23:21;;;;;;;3.90;2.10;;;;;;;15.21;100.00;99415.33;105491;1258;69163;-66
2023/08/02 05:25:48;;;;;;;4.50;2.40;;;;;;;15.24;100.00;99420.55;105428;1253;75031;-67
2023/08/02 05:28:15;;;;;;;4.50;2.00;;;;;;;15.28;100.00;99423.73;105442;1257;82602;-65
2023/08/02 05:30:42;;;;;;;4.30;2.00;;;;;;;15.32;100.00;99424.01;105491;1253;73868;-65
2023/08/02 05:33:09;;;;;;;3.30;2.10;;;;;;;15.35;100.00;99423.27;105549;1257;69109;-65
2023/08/02 05:35:36;;;;;;;4.00;2.30;;;;;;;15.39;100.00;99423.32;105455;1257;69207;-65
2023/08/02 05:38:04;;;;;;;5.40;2.40;;;;;;;15.43;100.00;99421.13;105497;1253;73830;-65
2023/08/02 05:40:32;;;;;;;3.60;2.40;;;;;;;15.47;100.00;99425.92;105512;1257;83151;-65
2023/08/02 05:42:59;;;;;;;5.20;2.00;;;;;;;15.51;100.00;99428.76;105535;1253;72687;-65
2023/08/02 05:45:26;;;;;;;2.90;1.80;;;;;;;15.56;100.00;99431.02;105499;1258;69187;-65
2023/08/02 05:47:53;;;;;;;6.40;2.20;;;;;;;15.60;100.00;99434.09;105527;1254;69078;-66
2023/08/02 05:50:20;;;;;;;2.80;2.30;;;;;;;15.64;100.00;99433.98;105511;1253;74587;-65
2023/08/02 05:52:47;;;;;;;4.20;2.30;;;;;;;15.70;100.00;99433.25;105479;1253;82234;-65
2023/08/02 05:55:14;;;;;;;4.70;2.00;;;;;;;15.74;100.00;99435.80;105505;1257;73490;-66
2023/08/02 05:57:41;;;;;;;3.10;2.10;;;;;;;15.77;100.00;99437.66;105526;1253;69177;-65
2023/08/02 06:00:09;;;;;;;4.70;2.30;;;;;;;15.81;100.00;99439.42;105430;1253;69117;-65
2023/08/02 06:02:37;;;;;;;4.10;2.10;;;;;;;15.89;100.00;99437.13;105482;1253;74987;-65
2023/08/02 06:05:05;;;;;;;4.00;2.20;;;;;;;15.96;100.00;99440.13;105388;1253;81521;-66
2023/08/02 06:07:32;;;;;;;3.60;2.10;;;;;;;16.01;100.00;99439.38;105485;1257;73666;-66
2023/08/02 06:09:59;;;;;;;6.90;2.30;;;;;;;16.09;100.00;99438.98;105486;1257;69161;-66
2023/08/02 06:12:25;;;;;;;3.60;2.60;;;;;;;16.14;100.00;99442.11;105463;1253;69160;-67
2023/08/02 06:14:52;;;;;;;3.90;2.20;;;;;;;16.20;100.00;99442.35;105565;1253;75317;-66
2023/08/02 06:17:19;;;;;;;4.20;2.20;;;;;;;16.26;100.00;99443.30;105404;1253;82291;-65
2023/08/02 06:19:46;;;;;;;5.60;2.10;;;;;;;16.31;100.00;99443.13;105396;1253;72629;-66
2023/08/02 06:22:15;;;;;;;3.60;2.20;;;;;;;16.37;100.00;99448.98;105431;1253;69193;-63
2023/08/02 06:24:43;;;;;;;4.10;2.20;;;;;;;16.46;100.00;99448.27;105432;1257;69147;-67
2023/08/02 06:27:10;;;;;;;5.10;2.20;;;;;;;16.57;100.00;99444.65;105482;1254;74643;-67
2023/08/02 06:29:37;;;;;;;3.50;2.00;;;;;;;16.69;100.00;99440.59;105472;1257;82514;-67
2023/08/02 06:32:05;;;;;;;5.50;2.10;;;;;;;16.78;100.00;99438.63;105423;1258;73092;-69
2023/08/02 06:34:32;;;;;;;3.00;1.80;;;;;;;16.86;100.00;99439.42;105563;1253;70051;-69
2023/08/02 06:36:59;;;;;;;3.60;1.80;;;;;;;16.94;100.00;99430.48;105536;1257;69263;-69
2023/08/02 06:39:26;;;;;;;2.90;1.90;;;;;;;17.03;100.00;99422.77;105544;1253;73933;-69
2023/08/02 06:41:53;;;;;;;3.80;1.90;;;;;;;17.10;100.00;99422.48;105526;1253;82746;-69
2023/08/02 06:44:21;;;;;;;4.20;1.60;;;;;;;17.16;100.00;99421.71;105793;1257;73721;-69
2023/08/02 06:46:48;;;;;;;3.90;1.50;;;;;;;17.21;100.00;99423.25;105595;1259;69165;-69
2023/08/02 06:49:15;;;;;;;3.20;1.50;;;;;;;17.28;100.00;99425.34;105495;1257;69133;-69
2023/08/02 06:51:42;;;;;;;3.30;1.80;;;;;;;17.36;100.00;99427.20;105570;1257;74831;-69
2023/08/02 06:54:12;;;;;;;4.40;1.40;;;;;;;17.45;100.00;99427.52;105527;1253;83396;-69
2023/08/02 06:56:39;;;;;;;3.30;1.60;;;;;;;17.57;100.00;99427.39;105620;1259;72864;-69
2023/08/02 06:59:06;;;;;;;3.20;1.70;;;;;;;17.68;100.00;99417.49;105507;1253;69710;-69
2023/08/02 07:01:32;;;;;;;4.60;1.50;;;;;;;17.75;100.00;99408.60;105330;1256;69652;-69
2023/08/02 07:03:59;;;;;;;2.40;1.60;;;;;;;17.77;100.00;99401.77;105418;1256;75036;-68
2023/08/02 07:06:26;;;;;;;4.10;1.80;;;;;;;17.75;100.00;99399.27;105419;1258;83499;-69
2023/08/02 07:08:53;;;;;;;7.90;1.80;;;;;;;17.69;100.00;99397.30;105513;1253;73911;-69
2023/08/02 07:11:20;;;;;;;6.20;1.80;;;;;;;17.65;100.00;99405.78;105797;1253;69076;-69
2023/08/02 07:14:07;;;;;;;6.00;1.60;;;;;;;17.59;100.00;99404.08;105482;1258;69273;-69
2023/08/02 07:16:34;;;;;;;1.70;1.30;;;;;;;17.58;100.00;99401.52;105455;1253;74938;-68
2023/08/02 07:19:02;;;;;;;2.60;1.50;;;;;;;17.58;100.00;99398.16;105471;1258;83287;-69
2023/08/02 07:21:29;;;;;;;4.80;1.60;;;;;;;17.60;100.00;99390.73;105665;1258;72987;-67
2023/08/02 07:23:56;;;;;;;3.40;1.30;;;;;;;17.59;100.00;99383.07;105562;1254;69186;-67
2023/08/02 07:26:23;;;;;;;3.60;1.20;;;;;;;17.59;100.00;99386.95;105518;1253;69193;-68
2023/08/02 07:28:50;;;;;;;1.80;1.30;;;;;;;17.64;100.00;99395.77;105497;1257;72689;-67
2023/08/02 07:31:17;;;;;;;3.80;1.70;;;;;;;17.71;100.00;99392.48;105298;1258;83295;-68
2023/08/02 07:33:45;;;;;;;4.00;1.30;;;;;;;17.80;100.00;99395.85;105833;1258;73441;-68
2023/08/02 07:36:14;;;;;;;2.70;1.30;;;;;;;17.87;100.00;99391.78;105480;1253;69080;-68
2023/08/02 07:38:42;;;;;;;6.20;1.10;;;;;;;17.95;100.00;99394.27;105668;1257;69197;-67
2023/08/02 07:41:09;;;;;;;2.20;1.30;;;;;;;18.00;100.00;99402.69;105600;1253;75071;-67
2023/08/02 07:43:36;;;;;;;5.00;1.00;;;;;;;18.08;100.00;99404.47;105417;1253;83550;-67
2023/08/02 07:46:03;;;;;;;2.70;1.30;;;;;;;18.27;100.00;99401.65;105423;1259;216866;-67
2023/08/02 07:48:30;;;;;;;8.30;1.40;;;;;;;18.47;100.00;99399.95;105545;1253;69076;-69
2023/08/02 07:50:57;;;;;;;3.80;1.10;;;;;;;18.56;100.00;99393.88;105715;1254;69078;-68
2023/08/02 07:53:24;;;;;;;6.00;1.40;;;;;;;18.65;100.00;99395.94;105533;1253;74208;-68
2023/08/02 07:56:02;;;;;;;2.00;1.20;;;;;;;18.74;100.00;99393.59;105579;1257;83201;-69
2023/08/02 07:58:29;;;;;;;3.00;1.40;;;;;;;18.91;100.00;99392.58;105619;1257;73785;-68
2023/08/02 08:00:56;;;;;;;3.30;1.20;;;;;;;19.07;100.00;99392.23;105591;1258;69121;-69
2023/08/02 08:03:23;;;;;;;4.60;1.10;;;;;;;19.16;99.96;99397.83;105537;1258;69202;-69
2023/08/02 08:05:50;;;;;;;2.70;0.90;;;;;;;19.15;99.07;99400.38;105563;1253;74988;-69
2023/08/02 08:08:17;;;;;;;3.10;1.20;;;;;;;19.14;98.40;99395.20;105594;1257;83327;-69
2023/08/02 08:10:50;;;;;;;1.90;1.10;;;;;;;19.09;100.00;99389.59;105627;1253;73908;-70
2023/08/02 08:13:17;;;;;;;2.40;1.30;;;;;;;19.04;100.00;99379.42;105621;1253;69152;-69
2023/08/02 08:15:44;;;;;;;6.80;1.50;;;;;;;19.08;100.00;99378.57;105692;1259;69118;-67
2023/08/02 08:18:11;;;;;;;2.70;1.00;;;;;;;19.21;100.00;99377.17;105648;1251;74878;-67
2023/08/02 08:20:38;;;;;;;2.40;1.20;;;;;;;19.42;100.00;99377.48;105654;1256;83356;-67
2023/08/02 08:23:05;;;;;;;3.60;0.90;;;;;;;19.59;100.00;99379.66;105562;1253;72527;-68
2023/08/02 08:25:32;;;;;;;3.60;1.20;;;;;;;19.71;100.00;99378.63;105457;1253;69167;-67
2023/08/02 08:27:59;;;;;;;4.30;1.40;;;;;;;19.82;100.00;99384.10;105471;1253;69165;-67
2023/08/02 08:30:26;;;;;;;2.90;1.20;;;;;;;19.90;99.33;99378.61;105490;1253;75136;-67
2023/08/02 08:32:53;;;;;;;3.10;1.10;;;;;;;19.95;97.59;99376.54;105500;1253;82402;-68
2023/08/02 08:35:21;;;;;;;2.60;0.90;;;;;;;20.06;96.08;99371.42;105526;1256;73493;-68
2023/08/02 08:37:49;;;;;;;4.60;1.00;;;;;;;20.18;94.26;99366.95;105458;1256;69125;-68
2023/08/02 08:40:17;;;;;;;3.10;0.90;;;;;;;20.21;92.83;99369.33;105478;1259;69303;-68
2023/08/02 08:42:51;;;;;;;2.80;1.00;;;;;;;20.23;91.88;99365.95;105501;1256;73676;-68
2023/08/02 08:45:21;;;;;;;1.80;0.90;;;;;;;20.30;91.26;99360.51;105516;1259;83816;-68
2023/08/02 08:47:48;;;;;;;6.70;1.30;;;;;;;20.36;90.61;99368.97;105509;1253;72601;-66
2023/08/02 08:50:16;;;;;;;2.00;0.90;;;;;;;20.43;89.87;99366.44;105524;1258;69147;-66
2023/08/02 08:52:47;;;;;;;4.30;1.00;;;;;;;20.50;89.03;99367.30;105492;1253;69101;-67
2023/08/02 08:55:15;;;;;;;2.00;0.80;;;;;;;20.53;87.67;99360.86;105513;1253;75004;-67
2023/08/02 08:57:45;;;;;;;4.50;1.30;;;;;;;20.67;87.69;99361.49;105577;1257;83658;-68
2023/08/02 09:00:15;;;;;;;4.00;1.10;;;;;;;20.83;87.01;99353.94;105511;1253;73367;-67
2023/08/02 09:02:43;;;;;;;2.50;1.10;;;;;;;20.99;86.54;99352.40;105495;1258;69105;-67
2023/08/02 09:05:10;;;;;;;3.40;1.10;;;;;;;21.13;85.44;99352.23;105504;1258;71080;-67
2023/08/02 09:07:37;;;;;;;4.60;1.60;;;;;;;21.19;84.32;99352.53;105315;1253;75061;-67
2023/08/02 09:10:06;;;;;;;4.20;1.00;;;;;;;21.27;83.83;99347.31;105456;1254;83178;-67
2023/08/02 09:12:46;;;;;;;3.60;1.20;;;;;;;21.38;83.37;99351.23;105517;1254;73676;-67
2023/08/02 09:15:15;;;;;;;3.80;1.20;;;;;;;21.50;82.54;99350.95;105492;1253;69082;-65
2023/08/02 09:17:50;;;;;;;4.50;1.00;;;;;;;21.73;82.64;99345.27;105538;1259;69205;-67
2023/08/02 09:20:22;;;;;;;5.80;1.00;;;;;;;21.96;82.08;99346.29;105545;1253;74975;-67
2023/08/02 09:22:50;;;;;;;3.80;1.10;;;;;;;22.12;80.80;99337.06;105501;1259;83738;-66
2023/08/02 09:25:28;;;;;;;4.30;1.30;;;;;;;22.26;80.41;99330.33;105509;1253;73893;-67
2023/08/02 09:27:58;;;;;;;3.90;1.30;;;;;;;22.32;79.14;99335.90;105489;1257;69218;-66
2023/08/02 09:30:32;;;;;;;4.00;1.00;;;;;;;22.39;78.51;99329.56;105470;1254;69216;-66
2023/08/02 09:33:01;;;;;;;2.20;1.00;;;;;;;22.43;77.63;99331.27;105532;1256;75012;-67
2023/08/02 09:35:47;;;;;;;3.30;0.80;;;;;;;22.43;79.35;99334.76;105484;1254;84218;-66
2023/08/02 09:38:16;;;;;;;3.70;1.00;;;;;;;22.38;81.30;99343.15;105524;1253;72503;-65
2023/08/02 09:40:47;;;;;;;3.70;1.30;;;;;;;22.35;81.79;99335.42;105349;1258;69210;-63
2023/08/02 09:43:34;;;;;;;4.50;1.40;;;;;;;22.44;80.70;99328.96;105494;1257;69188;-61
2023/08/02 09:46:01;;;;;;;5.10;1.20;;;;;;;22.46;79.02;99319.73;105522;1254;74865;-65
2023/08/02 09:48:35;;;;;;;3.90;0.90;;;;;;;22.50;78.50;99323.02;105452;1259;82716;-65
2023/08/02 09:51:03;;;;;;;3.60;1.10;;;;;;;22.56;76.47;99326.12;105459;1258;73980;-67
2023/08/02 09:53:30;;;;;;;2.90;1.10;;;;;;;22.56;75.62;99312.83;105483;1253;69180;-65
2023/08/02 09:55:58;;;;;;;4.90;1.20;;;;;;;22.60;75.00;99306.20;105437;1254;69137;-68
2023/08/02 09:58:26;;;;;;;3.40;1.00;;;;;;;22.56;74.50;99304.20;105556;1254;73920;-67
2023/08/02 10:00:53;;;;;;;3.90;1.10;;;;;;;22.51;73.73;99306.39;105359;1259;83647;-65
2023/08/02 10:03:23;;;;;;;3.80;1.00;;;;;;;22.42;72.24;99308.22;105482;1253;73659;-67
2023/08/02 10:05:53;;;;;;;3.30;1.00;;;;;;;22.36;72.55;99303.63;105199;1257;69236;-67
2023/08/02 10:08:21;;;;;;;4.40;0.90;;;;;;;22.40;72.24;99302.14;105450;1258;69127;-66
2023/08/02 10:10:48;;;;;;;2.50;0.90;;;;;;;22.45;71.48;99293.12;105243;1258;73837;-67
2023/08/02 10:13:22;;;;;;;3.00;0.90;;;;;;;22.50;70.90;99279.79;105522;1257;82382;-67
2023/08/02 10:15:49;;;;;;;3.00;1.10;;;;;;;22.71;71.52;99280.20;105446;1259;74442;-67
2023/08/02 10:18:17;;;;;;;2.40;1.00;;;;;;;23.22;72.49;99276.63;105461;1257;69179;-67
2023/08/02 10:20:45;;;;;;;3.80;1.30;;;;;;;23.70;71.29;99264.98;105506;1253;69065;-67
2023/08/02 10:23:13;;;;;;;3.80;1.10;;;;;;;23.90;69.79;99267.25;105527;1254;75137;-67
2023/08/02 10:25:41;;;;;;;3.10;1.00;;;;;;;24.04;68.84;99268.05;105458;1257;82281;-66
2023/08/02 10:28:08;;;;;;;3.20;1.10;;;;;;;24.42;68.08;99266.10;105529;1257;72668;-67
2023/08/02 10:30:36;;;;;;;2.60;0.90;;;;;;;24.79;67.22;99272.29;105560;1257;69184;-67
2023/08/02 10:33:13;;;;;;;1.90;0.90;;;;;;;24.87;66.43;99269.02;105331;1252;69183;-67
2023/08/02 10:35:56;;;;;;;3.10;1.10;;;;;;;24.95;66.07;99267.52;105488;1256;74694;-67
2023/08/02 10:38:38;;;;;;;2.40;0.90;;;;;;;24.99;64.33;99263.52;105462;1258;83515;-68
2023/08/02 10:41:08;;;;;;;2.60;1.00;;;;;;;25.00;64.16;99264.35;105467;1252;73769;-67
2023/08/02 10:43:54;;;;;;;1.90;0.80;;;;;;;25.10;63.58;99268.29;105491;1257;69151;-67
2023/08/02 10:46:26;;;;;;;1.80;0.80;;;;;;;25.08;60.79;99264.39;105517;1259;69181;-68
2023/08/02 10:48:55;;;;;;;3.90;0.70;;;;;;;24.96;65.46;99255.63;105512;1253;74866;-65
2023/08/02 10:51:31;;;;;;;3.90;0.90;;;;;;;25.09;66.66;99254.31;105527;1259;82472;-66
2023/08/02 10:54:25;;;;;;;3.60;0.70;;;;;;;25.30;65.40;99250.98;105477;1254;72672;-66
2023/08/02 10:56:53;;;;;;;3.80;0.70;;;;;;;25.89;62.17;99259.96;105445;1253;69099;-65
2023/08/02 10:59:23;;;;;;;1.80;0.60;;;;;;;26.17;58.53;99250.16;105544;1257;69189;-65
2023/08/02 11:02:11;;;;;;;2.70;0.80;;;;;;;26.13;57.65;99244.80;105481;1257;75211;-66
2023/08/02 11:04:44;;;;;;;5.00;0.70;;;;;;;26.08;57.58;99236.29;105490;1257;83346;-65
2023/08/02 11:07:19;;;;;;;2.20;0.60;;;;;;;26.08;57.22;99233.38;105563;1257;73909;-65
2023/08/02 11:09:54;;;;;;;5.90;0.70;;;;;;;26.12;57.06;99232.31;105511;1253;69055;-66
2023/08/02 11:12:21;;;;;;;2.30;1.10;;;;;;;26.18;55.01;99233.42;105487;1258;69263;-66
2023/08/02 11:14:50;;;;;;;5.50;1.00;;;;;;;26.13;54.94;99227.04;105538;1253;73685;-66
2023/08/02 11:17:19;;;;;;;2.50;0.80;;;;;;;26.20;54.79;99228.25;105497;1256;83356;-64
2023/08/02 11:19:59;;;;;;;2.90;0.80;;;;;;;26.08;54.47;99227.50;105563;1252;72544;-65
2023/08/02 11:22:35;;;;;;;3.10;1.10;;;;;;;26.08;55.29;99219.41;105083;1257;69243;-65
2023/08/02 11:25:03;;;;;;;1.30;0.80;;;;;;;26.25;55.65;99215.42;104989;1264;69209;-64